Time;durP1;ratioP1;P1;durP2;ratioP2;P2;SDS_P1;SDS_P2;PMS_P1;PMS_P2;Temp;Humidity;BMP_temperature;BMP_pressure;BME280_temperature;BME280_humidity;BME280_pressure;Samples;Min_cycle;Max_cycle;Signal;HPM_P1;HPM_P2
2022/03/16 01:18:12;;;;;;;105.60;46.00;;;;;;;;;;6182943;23;20291;-91
2022/03/16 01:20:39;;;;;;;128.52;52.22;;;;;;;;;;6125949;23;20251;-92
2022/03/16 01:23:05;;;;;;;162.02;57.33;;;;;;;;;;6126670;23;20083;-92
2022/03/16 01:25:31;;;;;;;135.40;52.63;;;;;;;;;;6126128;23;20499;-90
2022/03/16 01:27:57;;;;;;;117.85;49.20;;;;;;;;;;6125494;23;20378;-91
2022/03/16 01:30:23;;;;;;;140.32;54.20;;;;;;;;;;6100432;23;20016;-91
2022/03/16 01:32:50;;;;;;;153.35;57.70;;;;;;;;;;6125280;23;20482;-90
2022/03/16 01:35:16;;;;;;;138.77;56.80;;;;;;;;;;6100400;23;20017;-90
2022/03/16 01:37:43;;;;;;;149.38;55.67;;;;;;;;;;6101160;23;20076;-91
2022/03/16 01:40:10;;;;;;;164.25;58.20;;;;;;;;;;6124118;23;20492;-92
2022/03/16 01:42:36;;;;;;;130.07;55.70;;;;;;;;;;6124176;23;20015;-90
2022/03/16 01:45:03;;;;;;;131.23;53.70;;;;;;;;;;6124439;23;20015;-91
2022/03/16 01:47:29;;;;;;;153.13;56.42;;;;;;;;;;6103225;23;20024;-91
2022/03/16 01:49:56;;;;;;;171.00;59.15;;;;;;;;;;6123323;23;20043;-91
2022/03/16 01:52:24;;;;;;;147.68;54.30;;;;;;;;;;6099399;23;20513;-90
2022/03/16 01:54:51;;;;;;;174.82;63.22;;;;;;;;;;6124916;23;20028;-90
2022/03/16 01:57:17;;;;;;;137.70;54.30;;;;;;;;;;6127162;23;20051;-90
2022/03/16 01:59:44;;;;;;;103.18;44.83;;;;;;;;;;6126012;23;20433;-90
2022/03/16 02:02:10;;;;;;;93.45;41.95;;;;;;;;;;6125918;23;20062;-90
2022/03/16 02:04:37;;;;;;;84.13;39.85;;;;;;;;;;6102388;23;20013;-91
2022/03/16 02:07:04;;;;;;;83.32;40.67;;;;;;;;;;6101139;23;20501;-91
2022/03/16 02:09:30;;;;;;;88.82;39.88;;;;;;;;;;6125956;23;20025;-91
2022/03/16 02:11:57;;;;;;;87.75;41.65;;;;;;;;;;6125696;23;20454;-90
2022/03/16 02:14:23;;;;;;;100.15;45.22;;;;;;;;;;6126439;23;20017;-90
2022/03/16 02:16:49;;;;;;;264.38;44.17;;;;;;;;;;6123290;23;20032;-90
2022/03/16 02:19:16;;;;;;;192.48;39.75;;;;;;;;;;6126014;23;20390;-90
2022/03/16 02:21:45;;;;;;;102.28;38.72;;;;;;;;;;6129658;23;20009;-90
2022/03/16 02:24:14;;;;;;;72.97;35.70;;;;;;;;;;6127103;23;20450;-90
2022/03/16 02:26:40;;;;;;;82.45;35.70;;;;;;;;;;6127305;23;20064;-91
2022/03/16 02:29:06;;;;;;;86.15;39.97;;;;;;;;;;6127338;23;20525;-89
2022/03/16 02:31:32;;;;;;;90.53;40.22;;;;;;;;;;6102974;23;20044;-90
2022/03/16 02:33:59;;;;;;;77.63;36.15;;;;;;;;;;6127173;23;20070;-90
2022/03/16 02:36:25;;;;;;;74.95;37.45;;;;;;;;;;6102035;23;20071;-91
2022/03/16 02:38:51;;;;;;;99.57;42.40;;;;;;;;;;6108812;23;20474;-90
2022/03/16 02:41:17;;;;;;;103.32;43.15;;;;;;;;;;6103248;23;20594;-90
2022/03/16 02:43:43;;;;;;;117.75;45.92;;;;;;;;;;6103036;23;20063;-92
2022/03/16 02:46:10;;;;;;;95.15;43.10;;;;;;;;;;6127387;23;20021;-91
2022/03/16 02:48:36;;;;;;;104.00;44.83;;;;;;;;;;6127086;23;20027;-90
2022/03/16 02:51:03;;;;;;;98.32;42.55;;;;;;;;;;6102524;23;20063;-90
2022/03/16 02:53:29;;;;;;;112.22;40.92;;;;;;;;;;6126225;23;20100;-91
2022/03/16 02:55:55;;;;;;;61.78;29.52;;;;;;;;;;6104562;23;20386;-90
2022/03/16 02:58:22;;;;;;;53.55;28.98;;;;;;;;;;6126878;23;20473;-90
2022/03/16 03:00:48;;;;;;;45.78;26.27;;;;;;;;;;6127114;23;20009;-90
2022/03/16 03:03:14;;;;;;;64.35;32.38;;;;;;;;;;6127774;23;20336;-91
2022/03/16 03:05:40;;;;;;;76.15;36.63;;;;;;;;;;6127463;23;20251;-90
2022/03/16 03:08:07;;;;;;;87.95;39.83;;;;;;;;;;6127117;23;20344;-90
2022/03/16 03:10:33;;;;;;;78.63;38.15;;;;;;;;;;6127634;23;20017;-90
2022/03/16 03:12:59;;;;;;;93.97;38.78;;;;;;;;;;6126203;23;20387;-91
2022/03/16 03:15:25;;;;;;;57.15;29.38;;;;;;;;;;6125743;23;20095;-92
2022/03/16 03:17:52;;;;;;;45.17;24.17;;;;;;;;;;6125349;23;20024;-91
2022/03/16 03:20:19;;;;;;;42.40;23.90;;;;;;;;;;6102024;23;20414;-91
2022/03/16 03:22:45;;;;;;;72.93;35.95;;;;;;;;;;6101522;23;20013;-90
2022/03/16 03:25:13;;;;;;;77.25;35.90;;;;;;;;;;6126434;23;20032;-90
2022/03/16 03:27:39;;;;;;;69.40;33.95;;;;;;;;;;6126163;23;20447;-90
2022/03/16 03:30:06;;;;;;;71.22;34.92;;;;;;;;;;6128357;23;20096;-90
2022/03/16 03:32:32;;;;;;;82.55;34.92;;;;;;;;;;6131791;23;20468;-90
2022/03/16 03:34:58;;;;;;;80.32;35.78;;;;;;;;;;6103866;23;20400;-91
2022/03/16 03:37:25;;;;;;;95.38;38.38;;;;;;;;;;6127885;23;20009;-90
2022/03/16 03:39:52;;;;;;;145.48;38.00;;;;;;;;;;6128214;23;20017;-90
2022/03/16 03:42:19;;;;;;;180.60;35.63;;;;;;;;;;6128357;23;20013;-92
2022/03/16 03:44:45;;;;;;;205.60;36.22;;;;;;;;;;6103270;23;20048;-90
2022/03/16 03:47:11;;;;;;;247.52;35.80;;;;;;;;;;6128726;23;20013;-89
2022/03/16 03:49:38;;;;;;;108.78;29.73;;;;;;;;;;6125613;23;20239;-91
2022/03/16 03:52:05;;;;;;;198.13;34.38;;;;;;;;;;6126902;23;20045;-90
2022/03/16 03:54:32;;;;;;;103.22;29.65;;;;;;;;;;6127132;23;20473;-90
2022/03/16 03:57:18;;;;;;;146.10;31.65;;;;;;;;;;6152177;23;20017;-91
2022/03/16 03:59:45;;;;;;;130.75;30.95;;;;;;;;;;6130063;23;20092;-90
2022/03/16 04:02:14;;;;;;;147.43;32.53;;;;;;;;;;6129638;23;20024;-90
2022/03/16 04:04:41;;;;;;;111.72;28.92;;;;;;;;;;6130391;23;20139;-90
2022/03/16 04:07:13;;;;;;;94.25;28.33;;;;;;;;;;6134449;23;20055;-89
2022/03/16 04:09:46;;;;;;;135.05;28.98;;;;;;;;;;6104879;23;20028;-90
2022/03/16 04:12:13;;;;;;;108.78;29.13;;;;;;;;;;6127825;23;20013;-89
2022/03/16 04:14:39;;;;;;;153.60;28.88;;;;;;;;;;6127368;23;20047;-90
2022/03/16 04:17:08;;;;;;;89.20;28.58;;;;;;;;;;6137604;23;20048;-91
2022/03/16 04:19:35;;;;;;;123.75;29.05;;;;;;;;;;6109000;23;20100;-90
2022/03/16 04:22:01;;;;;;;154.85;33.65;;;;;;;;;;6135686;23;20025;-90
2022/03/16 04:24:27;;;;;;;170.88;35.17;;;;;;;;;;6136317;23;20036;-90
2022/03/16 04:26:56;;;;;;;112.88;30.38;;;;;;;;;;6116829;23;20013;-91
2022/03/16 04:29:22;;;;;;;120.70;30.25;;;;;;;;;;6117656;23;20103;-91
2022/03/16 04:31:48;;;;;;;146.85;31.70;;;;;;;;;;6141885;23;20227;-91
2022/03/16 04:34:18;;;;;;;112.82;31.20;;;;;;;;;;6116244;23;20025;-90
2022/03/16 04:36:44;;;;;;;171.95;34.47;;;;;;;;;;6142521;23;20075;-89
2022/03/16 04:39:12;;;;;;;151.75;33.33;;;;;;;;;;6145723;23;20049;-90
2022/03/16 04:41:38;;;;;;;230.43;38.97;;;;;;;;;;6147466;23;20001;-91
2022/03/16 04:44:05;;;;;;;172.07;36.83;;;;;;;;;;6115147;23;20040;-91
2022/03/16 04:46:31;;;;;;;210.35;37.47;;;;;;;;;;6147881;23;20013;-91
2022/03/16 04:48:58;;;;;;;276.17;40.47;;;;;;;;;;6115871;23;20012;-90
2022/03/16 04:51:27;;;;;;;306.65;40.17;;;;;;;;;;6140134;23;20255;-90
2022/03/16 04:53:53;;;;;;;79.82;29.25;;;;;;;;;;6114799;23;20296;-90
2022/03/16 04:56:19;;;;;;;115.57;32.92;;;;;;;;;;6140774;23;20031;-90
2022/03/16 04:58:45;;;;;;;87.95;31.90;;;;;;;;;;6142161;23;20017;-90
2022/03/16 05:01:12;;;;;;;106.03;31.42;;;;;;;;;;6144162;23;20210;-89
2022/03/16 05:03:38;;;;;;;159.75;36.88;;;;;;;;;;6142893;23;20024;-90
2022/03/16 05:06:04;;;;;;;132.70;35.10;;;;;;;;;;6139653;23;20167;-90
2022/03/16 05:08:35;;;;;;;80.32;32.05;;;;;;;;;;6137557;23;20451;-89
2022/03/16 05:11:02;;;;;;;140.95;40.65;;;;;;;;;;6136307;23;20528;-90
2022/03/16 05:13:28;;;;;;;77.82;34.50;;;;;;;;;;6136299;23;20480;-89
2022/03/16 05:15:54;;;;;;;74.70;34.20;;;;;;;;;;6109965;23;20028;-89
2022/03/16 05:18:23;;;;;;;115.72;38.83;;;;;;;;;;6114433;23;20013;-90
2022/03/16 05:20:49;;;;;;;68.85;33.80;;;;;;;;;;6134046;23;20055;-89
2022/03/16 05:23:15;;;;;;;126.57;36.45;;;;;;;;;;6114454;23;20224;-89
2022/03/16 05:25:41;;;;;;;81.95;37.22;;;;;;;;;;6112270;23;20017;-88
2022/03/16 05:28:08;;;;;;;58.58;29.95;;;;;;;;;;6131372;23;20024;-90
2022/03/16 05:30:34;;;;;;;60.30;31.27;;;;;;;;;;6118002;23;20056;-90
2022/03/16 05:33:00;;;;;;;54.13;30.45;;;;;;;;;;6149606;23;20025;-90
2022/03/16 05:35:27;;;;;;;48.75;28.63;;;;;;;;;;6123807;23;20305;-90
2022/03/16 05:37:53;;;;;;;50.53;30.42;;;;;;;;;;6122664;23;20009;-90
2022/03/16 05:40:20;;;;;;;45.33;27.95;;;;;;;;;;6147730;23;20013;-90
2022/03/16 05:42:46;;;;;;;53.70;29.40;;;;;;;;;;6122684;23;20001;-90
2022/03/16 05:45:12;;;;;;;45.30;26.48;;;;;;;;;;6122362;23;20013;-90
2022/03/16 05:47:39;;;;;;;39.88;25.75;;;;;;;;;;6145260;23;20308;-89
2022/03/16 05:50:06;;;;;;;47.70;28.00;;;;;;;;;;6146794;23;20009;-90
2022/03/16 05:52:32;;;;;;;55.10;30.80;;;;;;;;;;6117685;23;20179;-89
2022/03/16 05:54:59;;;;;;;45.63;28.00;;;;;;;;;;6138953;23;20415;-89
2022/03/16 05:57:25;;;;;;;53.08;29.55;;;;;;;;;;6142192;23;20009;-89
2022/03/16 05:59:52;;;;;;;58.83;32.88;;;;;;;;;;6137293;23;20013;-89
2022/03/16 06:02:18;;;;;;;70.75;35.03;;;;;;;;;;6117180;23;20521;-89
2022/03/16 06:04:44;;;;;;;62.75;33.30;;;;;;;;;;6139103;23;20013;-89
2022/03/16 06:07:11;;;;;;;80.47;37.22;;;;;;;;;;6139056;23;20063;-90
2022/03/16 06:09:37;;;;;;;76.60;39.72;;;;;;;;;;6142096;23;20442;-89
2022/03/16 06:12:04;;;;;;;81.18;37.67;;;;;;;;;;6112317;23;20005;-89
2022/03/16 06:14:31;;;;;;;77.20;37.97;;;;;;;;;;6142752;23;20017;-89
2022/03/16 06:17:00;;;;;;;106.65;42.95;;;;;;;;;;6145241;23;20105;-89
2022/03/16 06:19:26;;;;;;;84.75;41.35;;;;;;;;;;6144201;23;20044;-90
2022/03/16 06:21:53;;;;;;;83.25;40.67;;;;;;;;;;6128979;23;20092;-89
2022/03/16 06:24:19;;;;;;;81.60;40.47;;;;;;;;;;6128330;23;20017;-89
2022/03/16 06:26:45;;;;;;;70.78;37.08;;;;;;;;;;6104117;23;20013;-89
2022/03/16 06:29:11;;;;;;;97.68;45.03;;;;;;;;;;6107854;23;20028;-89
2022/03/16 06:31:37;;;;;;;109.70;47.38;;;;;;;;;;6105768;23;20013;-89
2022/03/16 06:34:04;;;;;;;89.80;45.22;;;;;;;;;;6126929;23;20016;-90
2022/03/16 06:36:30;;;;;;;115.57;51.83;;;;;;;;;;6102377;23;20346;-89
2022/03/16 06:38:57;;;;;;;128.23;54.97;;;;;;;;;;6101861;23;20016;-89
2022/03/16 06:41:23;;;;;;;122.80;52.75;;;;;;;;;;6125700;23;20071;-88
2022/03/16 06:43:50;;;;;;;128.15;55.65;;;;;;;;;;6097081;23;20298;-89
2022/03/16 06:46:16;;;;;;;147.70;61.47;;;;;;;;;;6125404;23;20327;-89
2022/03/16 06:48:42;;;;;;;136.77;58.05;;;;;;;;;;6128067;23;20088;-89
2022/03/16 06:51:09;;;;;;;135.02;60.38;;;;;;;;;;6126316;23;20367;-89
2022/03/16 06:53:35;;;;;;;147.48;63.08;;;;;;;;;;6129018;23;20058;-90
2022/03/16 06:56:03;;;;;;;124.50;56.58;;;;;;;;;;6104062;23;20013;-89
2022/03/16 06:58:29;;;;;;;126.30;55.22;;;;;;;;;;6105620;23;20023;-89
2022/03/16 07:00:56;;;;;;;105.55;50.28;;;;;;;;;;6129961;23;20092;-89
2022/03/16 07:03:23;;;;;;;106.28;51.33;;;;;;;;;;6131846;23;20064;-89
2022/03/16 07:05:49;;;;;;;100.28;50.42;;;;;;;;;;6133268;23;20013;-90
2022/03/16 07:08:15;;;;;;;107.35;51.75;;;;;;;;;;6132122;23;20021;-89
2022/03/16 07:10:43;;;;;;;127.32;58.40;;;;;;;;;;6106854;23;20059;-88
2022/03/16 07:13:13;;;;;;;114.90;54.38;;;;;;;;;;6128706;23;20106;-89
2022/03/16 07:15:48;;;;;;;125.85;55.65;;;;;;;;;;6129953;23;20052;-89
2022/03/16 07:18:33;;;;;;;104.22;52.42;;;;;;;;;;6112086;23;20026;-90
2022/03/16 07:21:03;;;;;;;113.00;52.50;;;;;;;;;;6112277;23;20049;-89
2022/03/16 07:23:37;;;;;;;96.60;48.03;;;;;;;;;;6132713;23;20068;-90
2022/03/16 07:26:12;;;;;;;122.13;51.17;;;;;;;;;;6105110;23;20045;-90
2022/03/16 07:28:38;;;;;;;91.95;46.88;;;;;;;;;;6127213;23;20021;-89
2022/03/16 07:31:10;;;;;;;95.47;48.78;;;;;;;;;;6130222;23;20037;-90
2022/03/16 07:33:48;;;;;;;106.97;52.33;;;;;;;;;;6130193;23;20021;-90
2022/03/16 07:36:24;;;;;;;89.57;45.17;;;;;;;;;;6110865;23;20342;-90
2022/03/16 07:38:53;;;;;;;84.38;45.35;;;;;;;;;;6127483;23;20108;-90
2022/03/16 07:41:19;;;;;;;77.15;43.47;;;;;;;;;;6130365;23;20024;-90
2022/03/16 07:43:46;;;;;;;83.82;46.25;;;;;;;;;;6101682;23;20099;-90
2022/03/16 07:46:12;;;;;;;74.28;43.85;;;;;;;;;;6127040;23;20017;-90
2022/03/16 07:48:45;;;;;;;97.50;51.25;;;;;;;;;;6127995;23;20024;-90
2022/03/16 07:51:39;;;;;;;104.00;53.17;;;;;;;;;;6116760;23;20018;-90
2022/03/16 07:54:16;;;;;;;99.32;53.63;;;;;;;;;;6067354;23;20021;-90
2022/03/16 07:56:45;;;;;;;77.53;45.72;;;;;;;;;;6067100;23;20026;-89
2022/03/16 07:59:13;;;;;;;96.53;53.05;;;;;;;;;;6068296;23;20117;-90
2022/03/16 08:01:41;;;;;;;84.97;47.35;;;;;;;;;;6066425;23;20017;-91
2022/03/16 08:04:19;;;;;;;91.53;50.00;;;;;;;;;;6067227;23;20014;-90
2022/03/16 08:06:56;;;;;;;90.95;48.55;;;;;;;;;;6068065;23;20014;-90
2022/03/16 08:09:49;;;;;;;78.40;45.67;;;;;;;;;;6070948;23;20025;-90
2022/03/16 08:12:20;;;;;;;67.72;43.28;;;;;;;;;;6089384;23;20015;-91
2022/03/16 08:14:48;;;;;;;74.00;44.08;;;;;;;;;;6070609;23;20029;-91
2022/03/16 08:17:20;;;;;;;83.05;46.08;;;;;;;;;;6077679;23;20018;-91
2022/03/16 08:19:46;;;;;;;79.45;44.40;;;;;;;;;;6043535;23;20017;-91
2022/03/16 08:22:24;;;;;;;68.40;41.55;;;;;;;;;;6110480;23;20020;-92
2022/03/16 08:24:51;;;;;;;78.93;42.70;;;;;;;;;;6129046;23;20398;-91
2022/03/16 08:27:17;;;;;;;62.00;38.25;;;;;;;;;;6104487;23;20125;-90
2022/03/16 08:29:47;;;;;;;67.97;39.72;;;;;;;;;;6105278;23;20079;-92
2022/03/16 08:32:13;;;;;;;68.53;41.10;;;;;;;;;;6127893;23;20020;-90
2022/03/16 08:34:45;;;;;;;68.45;40.70;;;;;;;;;;6130597;23;20020;-90
2022/03/16 08:37:11;;;;;;;61.92;39.63;;;;;;;;;;6127966;23;20144;-91
2022/03/16 08:39:43;;;;;;;71.95;44.13;;;;;;;;;;6128539;23;20013;-91
2022/03/16 08:42:13;;;;;;;63.78;39.75;;;;;;;;;;6101689;23;20013;-91
2022/03/16 08:44:43;;;;;;;68.40;41.10;;;;;;;;;;6129702;23;20013;-90
2022/03/16 08:50:08;;;;;;;72.50;43.58;;;;;;;;;;6158522;23;20052;-93
2022/03/16 08:52:34;;;;;;;68.75;41.78;;;;;;;;;;6137316;23;20127;-91
2022/03/16 08:55:03;;;;;;;74.78;45.50;;;;;;;;;;6105889;23;20124;-90
2022/03/16 08:57:29;;;;;;;64.60;39.50;;;;;;;;;;6105433;23;20021;-90
2022/03/16 08:59:58;;;;;;;69.72;41.85;;;;;;;;;;6103211;23;20017;-91
2022/03/16 09:02:27;;;;;;;64.80;37.22;;;;;;;;;;6128571;23;20023;-90
2022/03/16 09:04:56;;;;;;;64.30;37.28;;;;;;;;;;6129011;23;20009;-91
2022/03/16 09:07:22;;;;;;;64.90;37.92;;;;;;;;;;6128305;23;20055;-91
2022/03/16 09:09:48;;;;;;;54.95;34.85;;;;;;;;;;6128412;23;20075;-92
2022/03/16 09:12:15;;;;;;;56.95;35.53;;;;;;;;;;6103596;23;20021;-90
2022/03/16 09:17:33;;;;;;;53.25;32.92;;;;;;;;;;6131114;23;20021;-90
2022/03/16 09:20:04;;;;;;;52.72;33.35;;;;;;;;;;6126782;23;20063;-92
2022/03/16 09:22:30;;;;;;;55.22;32.25;;;;;;;;;;6128327;23;20035;-92
2022/03/16 09:24:59;;;;;;;47.20;29.23;;;;;;;;;;6127563;23;20049;-89
2022/03/16 09:27:29;;;;;;;44.08;29.17;;;;;;;;;;6103719;23;20044;-90
2022/03/16 09:29:59;;;;;;;46.72;28.25;;;;;;;;;;6129287;23;20083;-90
2022/03/16 09:32:27;;;;;;;49.20;30.15;;;;;;;;;;6104457;23;20386;-90
2022/03/16 09:34:56;;;;;;;43.08;29.52;;;;;;;;;;6104284;23;20017;-90
2022/03/16 09:37:23;;;;;;;42.25;26.48;;;;;;;;;;6104121;23;20052;-92
2022/03/16 09:39:49;;;;;;;37.15;24.38;;;;;;;;;;6103970;23;20017;-94
2022/03/16 09:42:15;;;;;;;34.58;23.15;;;;;;;;;;6129746;23;20013;-91
2022/03/16 09:52:23;;;;;;;31.17;20.77;;;;;;;;;;6177427;23;20292;-90
2022/03/16 09:54:50;;;;;;;31.33;21.35;;;;;;;;;;6149703;23;20017;-91
2022/03/16 09:57:16;;;;;;;28.45;18.98;;;;;;;;;;6124748;23;20021;-92
2022/03/16 09:59:51;;;;;;;28.60;18.05;;;;;;;;;;6099707;23;20009;-91
2022/03/16 10:02:21;;;;;;;29.58;17.92;;;;;;;;;;6126972;23;20017;-92
2022/03/16 10:04:48;;;;;;;22.80;15.90;;;;;;;;;;6101746;23;20013;-89
2022/03/16 10:07:14;;;;;;;22.90;14.65;;;;;;;;;;6125779;23;20211;-88
2022/03/16 10:15:18;;;;;;;24.35;14.98;;;;;;;;;;6175459;23;20314;-89
2022/03/16 10:18:03;;;;;;;24.48;15.43;;;;;;;;;;6126315;23;20474;-89
2022/03/16 10:20:30;;;;;;;21.15;14.75;;;;;;;;;;6125060;23;20031;-87
2022/03/16 10:22:57;;;;;;;24.23;14.85;;;;;;;;;;6101262;23;20028;-88
2022/03/16 10:25:24;;;;;;;31.00;15.90;;;;;;;;;;6126076;23;20343;-91
2022/03/16 10:27:50;;;;;;;26.88;15.07;;;;;;;;;;6125188;23;20129;-89
2022/03/16 10:30:16;;;;;;;24.38;15.48;;;;;;;;;;6099899;23;20021;-88
2022/03/16 10:32:55;;;;;;;23.88;15.23;;;;;;;;;;6123615;23;20048;-90
2022/03/16 10:35:25;;;;;;;25.83;15.45;;;;;;;;;;6102452;23;20613;-88
2022/03/16 10:38:00;;;;;;;24.98;15.98;;;;;;;;;;6126131;23;20106;-89
2022/03/16 10:40:36;;;;;;;25.42;15.70;;;;;;;;;;6102631;23;20277;-87
2022/03/16 10:49:04;;;;;;;25.60;15.13;;;;;;;;;;6089928;23;20018;-89
2022/03/16 10:51:31;;;;;;;24.48;15.50;;;;;;;;;;6071864;23;20014;-89
2022/03/16 10:53:59;;;;;;;30.83;15.57;;;;;;;;;;6094338;23;20044;-88
2022/03/16 10:56:27;;;;;;;25.15;16.25;;;;;;;;;;6128586;23;20478;-89
2022/03/16 10:58:54;;;;;;;26.02;15.40;;;;;;;;;;6125072;23;20019;-88
2022/03/16 11:01:22;;;;;;;26.08;15.75;;;;;;;;;;6126058;23;20017;-89
2022/03/16 11:03:49;;;;;;;23.13;15.50;;;;;;;;;;6126516;23;20020;-91
2022/03/16 11:06:23;;;;;;;23.85;15.65;;;;;;;;;;6126206;23;20388;-88
2022/03/16 11:08:54;;;;;;;26.50;15.40;;;;;;;;;;6125867;23;20021;-89
2022/03/16 11:14:05;;;;;;;25.23;15.50;;;;;;;;;;6177077;23;20021;-90
2022/03/16 11:16:32;;;;;;;27.50;16.08;;;;;;;;;;6128661;23;20020;-88
2022/03/16 11:18:59;;;;;;;26.25;15.18;;;;;;;;;;6127825;23;20040;-89
2022/03/16 11:21:56;;;;;;;23.30;14.18;;;;;;;;;;6128551;23;20067;-90
2022/03/16 11:24:27;;;;;;;22.60;14.65;;;;;;;;;;6092744;23;20036;-90
2022/03/16 11:27:12;;;;;;;24.67;15.73;;;;;;;;;;6129273;23;20009;-88
2022/03/16 11:29:58;;;;;;;26.23;15.48;;;;;;;;;;6133621;23;20040;-90
2022/03/16 11:32:33;;;;;;;22.52;15.43;;;;;;;;;;6130887;23;20035;-89
2022/03/16 11:35:00;;;;;;;21.13;13.90;;;;;;;;;;6128128;23;20213;-89
2022/03/16 11:37:35;;;;;;;18.75;12.45;;;;;;;;;;6102348;23;20587;-91
2022/03/16 11:40:16;;;;;;;25.83;13.38;;;;;;;;;;6126845;23;20040;-88
2022/03/16 11:43:08;;;;;;;22.38;13.32;;;;;;;;;;6127897;23;20017;-88
2022/03/16 11:45:46;;;;;;;22.13;13.23;;;;;;;;;;6128015;23;20017;-89
2022/03/16 11:48:44;;;;;;;20.88;12.93;;;;;;;;;;6125940;23;20108;-90
2022/03/16 11:51:13;;;;;;;22.23;13.02;;;;;;;;;;6132362;23;20363;-89
2022/03/16 11:53:57;;;;;;;21.65;13.23;;;;;;;;;;6150273;23;20028;-89
2022/03/16 11:56:39;;;;;;;22.50;13.20;;;;;;;;;;6150730;23;20118;-88
2022/03/16 11:59:28;;;;;;;22.20;13.32;;;;;;;;;;6150984;23;20462;-89
2022/03/16 12:02:05;;;;;;;22.67;13.27;;;;;;;;;;6149984;23;20052;-89
2022/03/16 12:04:33;;;;;;;24.58;13.35;;;;;;;;;;6153520;23;20330;-90
2022/03/16 12:07:02;;;;;;;23.08;13.85;;;;;;;;;;6150842;23;20012;-90
2022/03/16 12:09:40;;;;;;;22.50;13.73;;;;;;;;;;6151118;23;20035;-92
2022/03/16 12:15:32;;;;;;;22.75;14.98;;;;;;;;;;6204079;23;20025;-89
2022/03/16 12:18:15;;;;;;;22.42;15.60;;;;;;;;;;6129654;23;20016;-90
2022/03/16 12:20:42;;;;;;;23.60;15.60;;;;;;;;;;6152326;23;20040;-90
2022/03/16 12:23:10;;;;;;;20.58;13.98;;;;;;;;;;6150725;23;20403;-91
2022/03/16 12:25:52;;;;;;;24.48;14.50;;;;;;;;;;6128226;23;20354;-92
2022/03/16 12:31:15;;;;;;;22.85;15.57;;;;;;;;;;6202538;23;20021;-90
2022/03/16 12:33:43;;;;;;;24.63;16.50;;;;;;;;;;6151034;23;20294;-90
2022/03/16 12:36:11;;;;;;;26.30;15.73;;;;;;;;;;6151010;23;20027;-89
2022/03/16 12:38:39;;;;;;;24.90;14.93;;;;;;;;;;6154497;23;20143;-91
2022/03/16 12:43:55;;;;;;;26.15;14.93;;;;;;;;;;6200960;23;20013;-92
2022/03/16 12:46:33;;;;;;;23.35;15.98;;;;;;;;;;6152006;23;20031;-89
2022/03/16 12:49:03;;;;;;;24.77;15.45;;;;;;;;;;6152793;23;20027;-90
2022/03/16 12:51:37;;;;;;;24.30;15.75;;;;;;;;;;6156790;23;20016;-90
2022/03/16 12:54:05;;;;;;;22.98;15.30;;;;;;;;;;6156282;23;20466;-90
2022/03/16 12:56:32;;;;;;;25.42;16.00;;;;;;;;;;6154736;23;20019;-90
2022/03/16 12:58:58;;;;;;;28.75;16.80;;;;;;;;;;6154640;23;20016;-88
2022/03/16 13:01:25;;;;;;;26.13;17.08;;;;;;;;;;6155180;23;20043;-91
2022/03/16 13:04:11;;;;;;;25.33;15.63;;;;;;;;;;6156220;23;20017;-90
2022/03/16 13:06:38;;;;;;;28.40;16.23;;;;;;;;;;6179956;23;20012;-90
2022/03/16 13:09:07;;;;;;;24.90;16.38;;;;;;;;;;6130664;23;20016;-91
2022/03/16 13:11:34;;;;;;;26.30;16.65;;;;;;;;;;6158566;23;20071;-89
2022/03/16 13:14:01;;;;;;;28.77;17.15;;;;;;;;;;6156075;23;20052;-90
2022/03/16 13:16:34;;;;;;;28.27;16.92;;;;;;;;;;6205119;23;20016;-87
2022/03/16 13:19:02;;;;;;;26.17;16.50;;;;;;;;;;6155113;23;20013;-90
2022/03/16 13:21:28;;;;;;;26.25;16.38;;;;;;;;;;6155237;23;20017;-89
2022/03/16 13:24:11;;;;;;;25.20;15.82;;;;;;;;;;6130070;23;20016;-91
2022/03/16 13:26:40;;;;;;;27.83;16.92;;;;;;;;;;6155766;23;20024;-90
2022/03/16 13:29:09;;;;;;;25.58;16.90;;;;;;;;;;6156277;23;20016;-89
2022/03/16 13:31:36;;;;;;;26.67;16.20;;;;;;;;;;6157568;23;20040;-90
2022/03/16 13:34:13;;;;;;;27.63;17.55;;;;;;;;;;6130106;23;20155;-90
2022/03/16 13:36:44;;;;;;;26.48;15.77;;;;;;;;;;6154983;23;20349;-90
2022/03/16 13:39:24;;;;;;;23.27;15.70;;;;;;;;;;6131050;23;20016;-89
2022/03/16 13:42:07;;;;;;;28.23;16.40;;;;;;;;;;6154893;23;20020;-89
2022/03/16 13:44:37;;;;;;;25.58;17.33;;;;;;;;;;6163424;23;20091;-91
2022/03/16 13:47:20;;;;;;;24.98;16.65;;;;;;;;;;6158652;23;20017;-90
2022/03/16 13:49:46;;;;;;;;;;;;;;;;;;6159534;23;20572;-90
2022/03/16 13:52:13;;;;;;;26.60;16.55;;;;;;;;;;6182592;23;19916;-89
2022/03/16 13:54:41;;;;;;;27.45;17.00;;;;;;;;;;6132141;23;20039;-89
2022/03/16 13:57:11;;;;;;;28.92;17.17;;;;;;;;;;6156753;23;20013;-90
2022/03/16 13:59:41;;;;;;;28.38;18.02;;;;;;;;;;6156929;23;20013;-90
2022/03/16 14:02:08;;;;;;;31.48;18.25;;;;;;;;;;6155853;23;20024;-91
2022/03/16 14:04:37;;;;;;;30.63;17.92;;;;;;;;;;6131373;23;20116;-90
2022/03/16 14:07:17;;;;;;;26.48;18.85;;;;;;;;;;6154917;23;20118;-90
2022/03/16 14:09:44;;;;;;;23.52;17.50;;;;;;;;;;6153849;23;20070;-91
2022/03/16 14:12:18;;;;;;;30.60;18.75;;;;;;;;;;6155132;23;20349;-91
2022/03/16 14:14:46;;;;;;;28.00;17.60;;;;;;;;;;6129861;23;20556;-90
2022/03/16 14:17:12;;;;;;;28.00;18.52;;;;;;;;;;6134150;23;20044;-90
2022/03/16 14:19:43;;;;;;;29.83;18.10;;;;;;;;;;6155297;23;20016;-90
2022/03/16 14:22:13;;;;;;;26.85;17.75;;;;;;;;;;6155237;23;20016;-91
2022/03/16 14:24:43;;;;;;;26.85;17.90;;;;;;;;;;6156506;23;20044;-89
2022/03/16 14:27:19;;;;;;;26.63;19.30;;;;;;;;;;6154130;23;20098;-89
2022/03/16 14:29:51;;;;;;;28.80;19.52;;;;;;;;;;6154345;23;20034;-90
2022/03/16 14:32:17;;;;;;;25.67;18.17;;;;;;;;;;6154997;23;20017;-89
2022/03/16 14:34:43;;;;;;;30.70;19.80;;;;;;;;;;6154955;23;20016;-91
2022/03/16 14:37:16;;;;;;;28.85;19.40;;;;;;;;;;6156178;23;20017;-89
2022/03/16 14:39:44;;;;;;;30.42;19.17;;;;;;;;;;6155501;23;20017;-89
2022/03/16 14:42:11;;;;;;;29.20;19.63;;;;;;;;;;6128604;23;20052;-90
2022/03/16 14:44:37;;;;;;;28.45;20.52;;;;;;;;;;6151929;23;20012;-89
2022/03/16 14:47:03;;;;;;;32.13;20.25;;;;;;;;;;6153134;23;20434;-91
2022/03/16 14:49:32;;;;;;;29.02;19.25;;;;;;;;;;6126676;23;20017;-91
2022/03/16 14:52:03;;;;;;;31.27;20.08;;;;;;;;;;6160261;23;20016;-92
2022/03/16 14:54:32;;;;;;;27.73;19.88;;;;;;;;;;6129135;23;20457;-90
2022/03/16 14:57:00;;;;;;;31.75;19.60;;;;;;;;;;6155471;23;20031;-91
2022/03/16 14:59:26;;;;;;;32.88;20.98;;;;;;;;;;6152757;23;20020;-90
2022/03/16 15:01:59;;;;;;;27.17;19.67;;;;;;;;;;6126510;23;20094;-89
2022/03/16 15:04:25;;;;;;;27.48;19.58;;;;;;;;;;6152385;23;20013;-89
2022/03/16 15:06:51;;;;;;;33.70;20.25;;;;;;;;;;6129935;23;20043;-89
2022/03/16 15:09:20;;;;;;;30.80;19.17;;;;;;;;;;6153317;23;20027;-90
2022/03/16 15:11:46;;;;;;;32.45;20.33;;;;;;;;;;6152237;23;20422;-90
2022/03/16 15:14:12;;;;;;;32.92;20.42;;;;;;;;;;6127802;23;20023;-89
2022/03/16 15:16:38;;;;;;;28.85;19.45;;;;;;;;;;6130797;23;20048;-89
2022/03/16 15:19:05;;;;;;;29.65;19.48;;;;;;;;;;6130745;23;20012;-90
2022/03/16 15:21:34;;;;;;;29.77;20.73;;;;;;;;;;6153689;23;20454;-88
2022/03/16 15:24:01;;;;;;;29.77;20.58;;;;;;;;;;6156258;23;20341;-90
2022/03/16 15:26:27;;;;;;;32.45;20.88;;;;;;;;;;6157278;23;20009;-90
2022/03/16 15:28:53;;;;;;;33.70;21.08;;;;;;;;;;6155575;23;20012;-89
2022/03/16 15:31:21;;;;;;;29.20;20.05;;;;;;;;;;6158742;23;20086;-90
2022/03/16 15:33:59;;;;;;;30.70;20.17;;;;;;;;;;6157689;23;20023;-90
2022/03/16 15:36:25;;;;;;;28.55;20.02;;;;;;;;;;6128773;23;20108;-89
2022/03/16 15:38:51;;;;;;;27.30;19.60;;;;;;;;;;6155168;23;20016;-89
2022/03/16 15:44:02;;;;;;;28.35;19.85;;;;;;;;;;6156130;23;20026;-89
2022/03/16 15:46:28;;;;;;;28.80;20.08;;;;;;;;;;6127676;23;20013;-89
2022/03/16 15:48:54;;;;;;;34.38;20.13;;;;;;;;;;6151911;23;20028;-91
2022/03/16 15:51:21;;;;;;;26.60;19.10;;;;;;;;;;6149248;23;20405;-90
2022/03/16 15:53:50;;;;;;;30.23;20.05;;;;;;;;;;6125143;23;20024;-91
2022/03/16 15:56:16;;;;;;;27.20;18.92;;;;;;;;;;6152271;23;20032;-88
2022/03/16 15:58:42;;;;;;;29.67;18.48;;;;;;;;;;6152164;23;20024;-88
2022/03/16 16:01:10;;;;;;;33.50;18.77;;;;;;;;;;6153706;23;20285;-89
2022/03/16 16:03:40;;;;;;;27.58;18.80;;;;;;;;;;6127236;23;20067;-90
2022/03/16 16:06:07;;;;;;;25.83;18.55;;;;;;;;;;6154272;23;20079;-89
2022/03/16 16:08:36;;;;;;;29.20;18.75;;;;;;;;;;6129167;23;20341;-90
2022/03/16 16:11:09;;;;;;;29.73;18.77;;;;;;;;;;6152160;23;20024;-91
2022/03/16 16:13:39;;;;;;;29.10;18.70;;;;;;;;;;6151121;23;20445;-88
2022/03/16 16:16:05;;;;;;;27.60;18.42;;;;;;;;;;6149252;23;20100;-89
2022/03/16 16:18:32;;;;;;;26.02;18.48;;;;;;;;;;6152557;23;20012;-90
2022/03/16 16:20:59;;;;;;;24.00;17.20;;;;;;;;;;6152651;23;20446;-90